createdAt,value
2022-09-28T00:01:17.046Z,12.14
2022-09-28T00:03:48.483Z,12.14
2022-09-28T00:06:18.059Z,12.12
2022-09-28T00:08:45.761Z,12.09
2022-09-28T00:11:14.842Z,12.06
2022-09-28T00:13:43.350Z,12.02
2022-09-28T00:16:16.847Z,12.01
2022-09-28T00:18:45.093Z,12.01
2022-09-28T00:21:17.742Z,11.99
2022-09-28T00:24:04.037Z,11.98
2022-09-28T00:26:33.143Z,11.97
2022-09-28T00:29:01.543Z,11.97
2022-09-28T00:31:33.894Z,11.95
2022-09-28T00:34:02.105Z,11.95
2022-09-28T00:36:31.483Z,11.95
2022-09-28T00:39:00.423Z,11.94
2022-09-28T00:41:29.231Z,11.92
2022-09-28T00:44:35.704Z,11.91
2022-09-28T00:47:27.194Z,11.93
2022-09-28T00:50:01.056Z,11.94
2022-09-28T00:52:37.822Z,11.97
2022-09-28T00:55:08.437Z,11.99
2022-09-28T00:57:37.604Z,12.02
2022-09-28T01:00:06.230Z,12.03
2022-09-28T01:02:34.342Z,12.06
2022-09-28T01:05:03.694Z,12.10
2022-09-28T01:07:32.187Z,12.13
2022-09-28T01:09:59.830Z,12.16
2022-09-28T01:12:27.234Z,12.19
2022-09-28T01:14:55.537Z,12.20
2022-09-28T01:17:32.262Z,12.20
2022-09-28T01:20:13.817Z,12.21
2022-09-28T01:22:55.055Z,12.18
2022-09-28T01:25:38.106Z,12.18
2022-09-28T01:28:16.428Z,12.20
2022-09-28T01:30:46.959Z,12.22
2022-09-28T01:33:21.247Z,12.24
2022-09-28T01:36:12.565Z,12.25
2022-09-28T01:38:43.092Z,12.25
2022-09-28T01:41:11.850Z,12.24
2022-09-28T01:43:41.926Z,12.23
2022-09-28T01:46:14.675Z,12.21
2022-09-28T01:48:48.567Z,12.18
2022-09-28T01:51:21.419Z,12.14
2022-09-28T01:53:51.449Z,12.10
2022-09-28T01:56:24.085Z,12.09
2022-09-28T01:58:55.061Z,12.06
2022-09-28T02:01:25.932Z,12.05
2022-09-28T02:04:15.520Z,12.04
2022-09-28T02:06:56.701Z,12.04
2022-09-28T02:09:31.691Z,12.01
2022-09-28T02:12:00.519Z,11.99
2022-09-28T02:14:29.168Z,11.99
2022-09-28T02:16:58.211Z,12.00
2022-09-28T02:19:28.344Z,11.96
2022-09-28T02:22:25.088Z,11.96
2022-09-28T02:25:29.930Z,11.95
2022-09-28T02:28:05.386Z,11.91
2022-09-28T02:30:35.983Z,11.90
2022-09-28T02:33:07.000Z,11.90
2022-09-28T02:35:34.897Z,11.89
2022-09-28T02:38:02.848Z,11.90
2022-09-28T02:40:32.960Z,11.89
2022-09-28T02:43:09.969Z,11.87
2022-09-28T02:46:01.585Z,11.89
2022-09-28T02:49:19.863Z,11.88
2022-09-28T02:51:44.113Z,11.87
2022-09-28T02:54:21.966Z,11.84
2022-09-28T02:57:08.349Z,11.82
2022-09-28T02:59:52.092Z,11.84
2022-09-28T03:02:39.512Z,11.85
2022-09-28T03:05:13.330Z,11.90
2022-09-28T03:07:50.218Z,11.91
2022-09-28T03:10:29.873Z,11.93
2022-09-28T03:12:57.731Z,11.94
2022-09-28T03:15:30.496Z,11.97
2022-09-28T03:17:58.748Z,11.97
2022-09-28T03:20:27.200Z,11.99
2022-09-28T03:23:19.786Z,12.00
2022-09-28T03:25:24.758Z,12.01
2022-09-28T03:27:52.114Z,12.01
2022-09-28T03:30:20.035Z,12.00
2022-09-28T03:32:47.438Z,11.98
2022-09-28T03:35:15.247Z,11.94
2022-09-28T03:37:42.534Z,11.92
2022-09-28T03:40:10.239Z,11.91
2022-09-28T03:42:37.713Z,11.92
2022-09-28T03:45:05.821Z,11.93
2022-09-28T03:47:33.647Z,11.94
2022-09-28T03:50:00.899Z,11.97
2022-09-28T03:52:28.660Z,11.96
2022-09-28T03:54:55.720Z,11.96
2022-09-28T03:57:23.148Z,11.94
2022-09-28T03:59:50.665Z,11.90
2022-09-28T04:02:18.353Z,11.88
2022-09-28T04:04:46.756Z,11.86
2022-09-28T04:07:15.049Z,11.86
2022-09-28T04:09:42.991Z,11.87
2022-09-28T04:12:10.394Z,11.88
2022-09-28T04:14:37.960Z,11.87
2022-09-28T04:17:06.660Z,11.87
2022-09-28T04:19:34.033Z,11.88
2022-09-28T04:22:09.063Z,11.90
2022-09-28T04:24:38.755Z,11.92
2022-09-28T04:27:24.739Z,11.94
2022-09-28T04:29:52.307Z,11.97
2022-09-28T04:32:19.709Z,11.98
2022-09-28T04:34:47.467Z,12.00
2022-09-28T04:37:14.714Z,12.02
2022-09-28T04:39:46.178Z,12.04
2022-09-28T04:42:11.657Z,12.07
2022-09-28T04:44:39.518Z,12.09
2022-09-28T04:47:08.636Z,12.13
2022-09-28T04:49:40.624Z,12.14
2022-09-28T04:52:12.547Z,12.17
2022-09-28T04:54:39.549Z,12.22
2022-09-28T04:57:07.244Z,12.25
2022-09-28T04:59:36.565Z,12.27
2022-09-28T05:02:04.395Z,12.29
2022-09-28T05:04:36.632Z,12.30
2022-09-28T05:07:05.995Z,12.30
2022-09-28T05:09:37.667Z,12.30
2022-09-28T05:12:03.639Z,12.30
2022-09-28T05:14:31.786Z,12.33
2022-09-28T05:16:59.237Z,12.39
2022-09-28T05:19:29.862Z,12.43
2022-09-28T05:22:00.818Z,12.47
2022-09-28T05:24:30.584Z,12.55
2022-09-28T05:26:58.111Z,12.84
2022-09-28T05:29:31.947Z,13.63
2022-09-28T05:32:16.581Z,14.74
2022-09-28T05:34:48.897Z,15.74
2022-09-28T05:37:18.511Z,16.01
2022-09-28T05:39:47.193Z,15.86
2022-09-28T05:42:14.604Z,15.69
2022-09-28T05:44:45.710Z,15.47
2022-09-28T05:47:13.461Z,15.30
2022-09-28T05:49:41.995Z,15.11
2022-09-28T05:52:09.619Z,14.89
2022-09-28T05:54:38.720Z,14.71
2022-09-28T05:57:07.035Z,14.60
2022-09-28T05:59:35.677Z,14.47
2022-09-28T06:02:04.596Z,14.37
2022-09-28T06:04:32.090Z,14.26
2022-09-28T06:06:59.666Z,14.17
2022-09-28T06:09:28.061Z,14.11
2022-09-28T06:12:15.539Z,14.06
2022-09-28T06:14:48.674Z,13.99
2022-09-28T06:17:16.165Z,13.89
2022-09-28T06:19:45.454Z,13.81
2022-09-28T06:22:17.576Z,13.78
2022-09-28T06:24:46.991Z,13.75
2022-09-28T06:27:14.382Z,13.72
2022-09-28T06:29:42.643Z,13.73
2022-09-28T06:32:11.745Z,13.76
2022-09-28T06:34:42.715Z,13.81
2022-09-28T06:37:10.578Z,13.91
2022-09-28T06:39:37.878Z,14.13
2022-09-28T06:42:05.868Z,14.52
2022-09-28T06:44:40.982Z,15.06
2022-09-28T06:47:15.896Z,15.60
2022-09-28T06:50:06.703Z,16.08
2022-09-28T06:52:53.975Z,16.39
2022-09-28T06:55:26.820Z,16.76
2022-09-28T06:58:00.889Z,17.24
2022-09-28T07:00:32.452Z,17.44
2022-09-28T07:03:03.073Z,17.84
2022-09-28T07:05:44.072Z,18.19
2022-09-28T07:08:19.888Z,18.40
2022-09-28T07:11:07.854Z,18.56
2022-09-28T07:13:50.315Z,18.74
2022-09-28T07:16:09.541Z,18.63
2022-09-28T07:18:39.411Z,18.50
2022-09-28T07:21:07.672Z,18.34
2022-09-28T07:23:48.084Z,18.09
2022-09-28T07:26:13.885Z,17.87
2022-09-28T07:28:45.853Z,17.59
2022-09-28T07:31:33.297Z,17.35
2022-09-28T07:34:14.213Z,17.11
2022-09-28T07:36:57.358Z,17.00
2022-09-28T07:39:25.430Z,17.00
2022-09-28T07:41:56.754Z,17.00
2022-09-28T07:44:22.839Z,16.94
2022-09-28T07:46:52.281Z,16.94
2022-09-28T07:49:31.763Z,16.92
2022-09-28T07:52:03.972Z,16.94
2022-09-28T07:54:39.503Z,16.98
2022-09-28T07:57:14.811Z,17.06
2022-09-28T07:59:53.102Z,17.04
2022-09-28T08:02:39.430Z,16.83
2022-09-28T08:05:08.899Z,16.48
2022-09-28T08:07:37.862Z,16.07
2022-09-28T08:10:10.249Z,15.77
2022-09-28T08:13:00.696Z,15.48
2022-09-28T08:15:41.924Z,15.24
2022-09-28T08:18:10.956Z,15.13
2022-09-28T08:20:56.489Z,15.05
2022-09-28T08:23:24.031Z,15.02
2022-09-28T08:25:56.569Z,14.99
2022-09-28T08:28:24.334Z,14.97
2022-09-28T08:30:53.808Z,14.99
2022-09-28T08:33:43.994Z,14.98
2022-09-28T08:36:29.845Z,15.14
2022-09-28T08:38:58.880Z,15.20
2022-09-28T08:41:54.175Z,15.26
2022-09-28T08:44:45.540Z,15.41
2022-09-28T08:47:37.014Z,15.56
2022-09-28T08:50:17.577Z,15.62
2022-09-28T08:53:06.205Z,15.61
2022-09-28T08:55:39.576Z,15.62
2022-09-28T08:58:23.716Z,15.66
2022-09-28T09:00:52.405Z,15.73
2022-09-28T09:03:32.058Z,15.81
2022-09-28T09:06:18.163Z,15.90
2022-09-28T09:09:00.538Z,16.11
2022-09-28T09:11:48.202Z,16.40
2022-09-28T09:14:43.823Z,16.50
2022-09-28T09:17:24.433Z,16.59
2022-09-28T09:20:20.166Z,16.80
2022-09-28T09:23:00.418Z,17.14
2022-09-28T09:25:42.347Z,17.60
2022-09-28T09:28:20.350Z,17.85
2022-09-28T09:31:10.986Z,18.00
2022-09-28T09:33:43.730Z,18.12
2022-09-28T09:36:22.079Z,18.51
2022-09-28T09:39:06.691Z,18.85
2022-09-28T09:42:05.497Z,19.18
2022-09-28T09:44:58.756Z,19.49
2022-09-28T09:47:49.500Z,19.82
2022-09-28T09:50:33.753Z,20.14
2022-09-28T09:53:04.498Z,20.18
2022-09-28T09:55:44.778Z,20.35
2022-09-28T09:58:29.318Z,20.55
2022-09-28T10:01:10.640Z,20.63
2022-09-28T10:03:58.168Z,20.72
2022-09-28T10:06:29.714Z,20.66
2022-09-28T10:09:06.418Z,20.74
2022-09-28T10:11:40.931Z,20.70
2022-09-28T10:14:16.827Z,20.60
2022-09-28T10:16:47.949Z,20.53
2022-09-28T10:19:20.909Z,20.33
2022-09-28T10:21:53.107Z,20.14
2022-09-28T10:24:32.122Z,20.03
2022-09-28T10:27:12.190Z,20.01
2022-09-28T10:30:09.272Z,19.99
2022-09-28T10:32:38.955Z,19.96
2022-09-28T10:35:22.388Z,19.87
2022-09-28T10:38:16.903Z,19.82
2022-09-28T10:40:53.334Z,19.69
2022-09-28T10:43:39.545Z,19.60
2022-09-28T10:46:22.929Z,19.62
2022-09-28T10:49:03.055Z,19.64
2022-09-28T10:51:51.587Z,19.61
2022-09-28T10:54:22.732Z,19.63
2022-09-28T10:56:53.111Z,19.67
2022-09-28T10:59:37.542Z,19.68
2022-09-28T11:02:27.058Z,19.70
2022-09-28T11:05:01.077Z,19.64
2022-09-28T11:07:32.442Z,19.60
2022-09-28T11:10:01.167Z,19.56
2022-09-28T11:12:35.866Z,19.53
2022-09-28T11:15:05.970Z,19.51
2022-09-28T11:17:40.083Z,19.55
2022-09-28T11:20:28.453Z,19.59
2022-09-28T11:23:18.474Z,19.61
2022-09-28T11:26:01.689Z,19.64
2022-09-28T11:28:32.705Z,19.63
2022-09-28T11:31:01.761Z,19.64
2022-09-28T11:33:40.653Z,19.71
2022-09-28T11:36:16.542Z,19.64
2022-09-28T11:38:54.946Z,19.65
2022-09-28T11:41:27.903Z,19.72
2022-09-28T11:44:16.075Z,19.74
2022-09-28T11:47:05.749Z,19.71
2022-09-28T11:49:39.891Z,19.67
2022-09-28T11:52:23.087Z,19.67
2022-09-28T11:54:57.068Z,19.68
2022-09-28T11:57:30.192Z,19.67
2022-09-28T12:00:13.263Z,19.67
2022-09-28T12:02:55.263Z,19.69
2022-09-28T12:05:33.578Z,19.69
2022-09-28T12:08:15.054Z,19.64
2022-09-28T12:11:13.568Z,19.68
2022-09-28T12:14:04.434Z,19.75
2022-09-28T12:17:07.385Z,19.63
2022-09-28T12:19:43.379Z,19.65
2022-09-28T12:22:17.175Z,19.59
2022-09-28T12:24:47.047Z,19.52
2022-09-28T12:27:17.631Z,19.49
2022-09-28T12:30:00.228Z,19.53
2022-09-28T12:32:37.373Z,19.54
2022-09-28T12:35:31.797Z,19.69
2022-09-28T12:38:13.377Z,19.87
2022-09-28T12:40:53.400Z,20.07
2022-09-28T12:43:40.068Z,20.08
2022-09-28T12:46:16.932Z,20.08
2022-09-28T12:49:21.661Z,19.93
2022-09-28T12:51:34.136Z,19.70
2022-09-28T12:54:07.844Z,19.65
2022-09-28T12:57:10.845Z,19.62
2022-09-28T12:59:41.980Z,19.55
2022-09-28T13:02:19.517Z,19.38
2022-09-28T13:05:09.106Z,19.25
2022-09-28T13:07:57.865Z,19.16
2022-09-28T13:10:37.951Z,19.07
2022-09-28T13:13:09.029Z,18.98
2022-09-28T13:15:55.398Z,18.94
2022-09-28T13:18:35.260Z,18.89
2022-09-28T13:21:10.141Z,18.86
2022-09-28T13:23:42.397Z,18.78
2022-09-28T13:26:16.719Z,18.69
2022-09-28T13:28:46.977Z,18.62
2022-09-28T13:31:17.647Z,18.50
2022-09-28T13:33:47.568Z,18.41
2022-09-28T13:36:33.029Z,18.28
2022-09-28T13:39:00.495Z,18.19
2022-09-28T13:41:34.917Z,18.10
2022-09-28T13:44:17.400Z,18.03
2022-09-28T13:46:52.077Z,17.95
2022-09-28T13:49:39.786Z,17.88
2022-09-28T13:52:22.375Z,17.80
2022-09-28T13:55:24.399Z,17.74
2022-09-28T13:57:58.107Z,17.71
2022-09-28T14:00:33.771Z,17.67
2022-09-28T14:03:07.873Z,17.67
2022-09-28T14:05:47.697Z,17.67
2022-09-28T14:08:38.068Z,17.66
2022-09-28T14:11:34.342Z,17.65
2022-09-28T14:14:13.114Z,17.63
2022-09-28T14:16:41.921Z,17.60
2022-09-28T14:19:22.418Z,17.57
2022-09-28T14:21:57.581Z,17.55
2022-09-28T14:24:37.786Z,17.51
2022-09-28T14:27:20.883Z,17.49
2022-09-28T14:29:51.844Z,17.40
2022-09-28T14:32:24.236Z,17.32
2022-09-28T14:34:58.292Z,17.26
2022-09-28T14:37:47.159Z,17.22
2022-09-28T14:40:49.613Z,17.18
2022-09-28T14:43:30.589Z,17.14
2022-09-28T14:46:14.282Z,17.11
2022-09-28T14:48:52.952Z,17.07
2022-09-28T14:51:30.471Z,17.04
2022-09-28T14:54:03.734Z,17.01
2022-09-28T14:56:35.636Z,16.97
2022-09-28T14:59:03.088Z,16.89
2022-09-28T15:01:30.388Z,16.78
2022-09-28T15:04:06.244Z,16.67
2022-09-28T15:06:48.565Z,16.61
2022-09-28T15:09:29.581Z,16.55
2022-09-28T15:12:10.140Z,16.49
2022-09-28T15:14:53.698Z,16.46
2022-09-28T15:17:27.605Z,16.41
2022-09-28T15:20:19.195Z,16.36
2022-09-28T15:22:50.926Z,16.32
2022-09-28T15:25:20.959Z,16.28
2022-09-28T15:28:06.380Z,16.25
2022-09-28T15:30:42.022Z,16.20
2022-09-28T15:33:44.223Z,16.15
2022-09-28T15:36:27.851Z,16.11
2022-09-28T15:38:58.663Z,16.06
2022-09-28T15:41:26.599Z,16.01
2022-09-28T15:44:09.832Z,15.96
2022-09-28T15:46:39.912Z,15.89
2022-09-28T15:49:23.286Z,15.79
2022-09-28T15:51:53.226Z,15.72
2022-09-28T15:54:26.991Z,15.67
2022-09-28T15:57:01.400Z,15.62
2022-09-28T15:59:40.445Z,15.58
2022-09-28T16:02:17.012Z,15.54
2022-09-28T16:05:00.150Z,15.53
2022-09-28T16:07:40.200Z,15.48
2022-09-28T16:10:14.059Z,15.43
2022-09-28T16:12:48.166Z,15.37
2022-09-28T16:15:24.669Z,15.31
2022-09-28T16:17:55.558Z,15.24
2022-09-28T16:20:31.408Z,15.22
2022-09-28T16:23:05.404Z,15.16
2022-09-28T16:25:36.988Z,15.11
2022-09-28T16:28:05.174Z,15.07
2022-09-28T16:30:34.324Z,15.01
2022-09-28T16:33:07.955Z,14.97
2022-09-28T16:35:41.878Z,14.92
2022-09-28T16:38:13.149Z,14.88
2022-09-28T16:40:48.947Z,14.80
2022-09-28T16:43:23.625Z,14.73
2022-09-28T16:45:51.417Z,14.66
2022-09-28T16:48:20.983Z,14.61
2022-09-28T16:50:48.503Z,14.53
2022-09-28T16:53:35.466Z,14.48
2022-09-28T16:56:03.746Z,14.41
2022-09-28T16:58:31.385Z,14.35
2022-09-28T17:00:59.427Z,14.30
2022-09-28T17:03:27.631Z,14.25
2022-09-28T17:05:56.029Z,14.21
2022-09-28T17:08:24.474Z,14.16
2022-09-28T17:11:18.094Z,14.10
2022-09-28T17:13:33.429Z,14.05
2022-09-28T17:16:12.995Z,14.00
2022-09-28T17:18:40.831Z,13.94
2022-09-28T17:21:19.593Z,13.85
2022-09-28T17:23:48.760Z,13.79
2022-09-28T17:26:30.160Z,13.73
2022-09-28T17:28:58.831Z,13.67
2022-09-28T17:31:26.331Z,13.64
2022-09-28T17:33:54.353Z,13.57
2022-09-28T17:36:22.301Z,13.50
2022-09-28T17:38:51.501Z,13.45
2022-09-28T17:41:20.967Z,13.38
2022-09-28T17:43:49.752Z,13.30
2022-09-28T17:46:29.546Z,13.22
2022-09-28T17:48:58.986Z,13.17
2022-09-28T17:51:29.694Z,13.09
2022-09-28T17:53:58.329Z,13.04
2022-09-28T17:56:29.812Z,12.98
2022-09-28T17:59:00.223Z,12.94
2022-09-28T18:01:29.150Z,12.89
2022-09-28T18:03:57.086Z,12.84
2022-09-28T18:06:24.735Z,12.75
2022-09-28T18:08:54.526Z,12.66
2022-09-28T18:11:22.228Z,12.58
2022-09-28T18:13:49.717Z,12.50
2022-09-28T18:16:17.089Z,12.45
2022-09-28T18:18:47.475Z,12.38
2022-09-28T18:21:16.986Z,12.33
2022-09-28T18:23:48.333Z,12.27
2022-09-28T18:26:18.362Z,12.20
2022-09-28T18:28:46.321Z,12.14
2022-09-28T18:31:14.818Z,12.09
2022-09-28T18:33:43.132Z,12.03
2022-09-28T18:36:10.395Z,11.96
2022-09-28T18:38:38.485Z,11.89
2022-09-28T18:41:10.432Z,11.82
2022-09-28T18:43:41.625Z,11.77
2022-09-28T18:46:10.240Z,11.74
2022-09-28T18:48:40.283Z,11.70
2022-09-28T18:51:09.016Z,11.64
2022-09-28T18:53:38.527Z,11.57
2022-09-28T18:56:07.886Z,11.58
2022-09-28T18:58:36.530Z,11.54
2022-09-28T19:01:31.765Z,11.49
2022-09-28T19:03:44.947Z,11.47
2022-09-28T19:06:14.559Z,11.43
2022-09-28T19:08:42.808Z,11.40
2022-09-28T19:11:12.723Z,11.37
2022-09-28T19:13:40.426Z,11.34
2022-09-28T19:16:23.463Z,11.29
2022-09-28T19:18:56.073Z,11.25
2022-09-28T19:21:23.640Z,11.20
2022-09-28T19:23:52.991Z,11.15
2022-09-28T19:26:23.721Z,11.12
2022-09-28T19:28:51.426Z,11.01
2022-09-28T19:31:19.373Z,11.03
2022-09-28T19:33:47.656Z,10.98
2022-09-28T19:36:18.105Z,10.94
2022-09-28T19:38:46.114Z,10.89
2022-09-28T19:41:39.384Z,10.84
2022-09-28T19:44:09.869Z,10.82
2022-09-28T19:46:38.782Z,10.78
2022-09-28T19:49:12.454Z,10.74
2022-09-28T19:52:01.740Z,10.70
2022-09-28T19:54:13.393Z,10.66
2022-09-28T19:56:42.527Z,10.64
2022-09-28T19:59:11.173Z,10.60
2022-09-28T20:01:39.145Z,10.58
2022-09-28T20:04:06.451Z,10.56
2022-09-28T20:06:36.359Z,10.53
2022-09-28T20:09:04.134Z,10.53
2022-09-28T20:11:31.876Z,10.51
2022-09-28T20:13:59.708Z,10.51
2022-09-28T20:16:29.081Z,10.49
2022-09-28T20:18:59.928Z,10.46
2022-09-28T20:21:27.292Z,10.44
2022-09-28T20:23:55.725Z,10.42
2022-09-28T20:26:24.304Z,10.39
2022-09-28T20:28:53.326Z,10.36
2022-09-28T20:31:23.135Z,10.33
2022-09-28T20:33:51.221Z,10.31
2022-09-28T20:36:21.476Z,10.29
2022-09-28T20:38:50.530Z,10.28
2022-09-28T20:41:19.551Z,10.25
2022-09-28T20:43:46.694Z,10.25
2022-09-28T20:46:14.634Z,10.24
2022-09-28T20:48:41.888Z,10.21
2022-09-28T20:51:15.113Z,10.19
2022-09-28T20:53:45.321Z,10.17
2022-09-28T20:56:15.635Z,10.16
2022-09-28T20:58:43.014Z,10.14
2022-09-28T21:01:16.808Z,10.12
2022-09-28T21:03:50.380Z,10.10
2022-09-28T21:06:21.353Z,10.10
2022-09-28T21:08:49.170Z,10.10
2022-09-28T21:11:18.415Z,10.08
2022-09-28T21:13:45.685Z,10.05
2022-09-28T21:16:15.768Z,10.03
2022-09-28T21:18:43.246Z,10.00
2022-09-28T21:21:15.246Z,9.97
2022-09-28T21:23:44.236Z,9.96
2022-09-28T21:26:15.302Z,9.94
2022-09-28T21:28:44.290Z,9.92
2022-09-28T21:31:12.088Z,9.90
2022-09-28T21:33:39.480Z,9.87
2022-09-28T21:36:10.226Z,9.84
2022-09-28T21:38:37.651Z,9.81
2022-09-28T21:41:05.121Z,9.78
2022-09-28T21:43:34.242Z,9.76
2022-09-28T21:46:01.726Z,9.74
2022-09-28T21:48:29.459Z,9.71
2022-09-28T21:50:58.625Z,9.69
2022-09-28T21:53:28.634Z,9.68
2022-09-28T21:55:58.236Z,9.66
2022-09-28T21:58:28.265Z,9.66
2022-09-28T22:01:14.126Z,9.65
2022-09-28T22:03:43.380Z,9.63
2022-09-28T22:06:11.335Z,9.63
2022-09-28T22:08:38.955Z,9.63
2022-09-28T22:11:11.292Z,9.61
2022-09-28T22:13:43.682Z,9.60
2022-09-28T22:16:12.049Z,9.61
2022-09-28T22:18:41.123Z,9.58
2022-09-28T22:21:20.095Z,9.56
2022-09-28T22:23:48.002Z,9.55
2022-09-28T22:26:24.268Z,9.53
2022-09-28T22:28:54.051Z,9.50
2022-09-28T22:31:28.183Z,9.48
2022-09-28T22:33:56.664Z,9.47
2022-09-28T22:36:25.432Z,9.45
2022-09-28T22:38:54.756Z,9.45
2022-09-28T22:41:22.675Z,9.47
2022-09-28T22:43:51.367Z,9.47
2022-09-28T22:46:24.776Z,9.48
2022-09-28T22:48:54.811Z,9.45
2022-09-28T22:51:23.647Z,9.47
2022-09-28T22:53:51.311Z,9.45
2022-09-28T22:56:19.348Z,9.43
2022-09-28T22:58:47.242Z,9.41
2022-09-28T23:01:17.291Z,9.39
2022-09-28T23:03:45.157Z,9.39
2022-09-28T23:06:15.393Z,9.37
2022-09-28T23:08:43.934Z,9.35
2022-09-28T23:11:11.598Z,9.33
2022-09-28T23:13:39.265Z,9.31
2022-09-28T23:16:10.199Z,9.26
2022-09-28T23:18:40.450Z,9.23
2022-09-28T23:21:14.678Z,9.21
2022-09-28T23:23:44.107Z,9.19
2022-09-28T23:26:14.307Z,9.17
2022-09-28T23:28:42.270Z,9.14
2022-09-28T23:31:15.164Z,9.14
2022-09-28T23:33:42.273Z,9.14
2022-09-28T23:36:09.476Z,9.13
2022-09-28T23:38:36.684Z,9.11
2022-09-28T23:41:04.409Z,9.08
2022-09-28T23:43:31.898Z,9.05
2022-09-28T23:45:59.041Z,9.03
2022-09-28T23:48:26.213Z,9.03
2022-09-28T23:50:53.431Z,9.03
2022-09-28T23:53:20.540Z,9.02
2022-09-28T23:55:47.786Z,9.02
2022-09-28T23:58:14.784Z,9.01
